Time;durP1;ratioP1;P1;durP2;ratioP2;P2;SDS_P1;SDS_P2;PMS_P1;PMS_P2;Temp;Humidity;BMP_temperature;BMP_pressure;BME280_temperature;BME280_humidity;BME280_pressure;Samples;Min_cycle;Max_cycle;Signal;HPM_P1;HPM_P2
2021/10/11 00:01:56;;;;;;;19.88;11.73;;;9.10;87.20;;;;;;5017407;28;20567;-67
2021/10/11 00:04:42;;;;;;;18.95;12.80;;;9.10;87.20;;;;;;5030728;28;20025;-67
2021/10/11 00:07:28;;;;;;;21.13;10.98;;;9.00;87.60;;;;;;5045484;28;20041;-67
2021/10/11 00:10:20;;;;;;;18.15;11.27;;;9.00;87.60;;;;;;5035938;28;20506;-67
2021/10/11 00:13:06;;;;;;;18.67;11.30;;;9.00;88.00;;;;;;5047844;28;20031;-66
2021/10/11 00:15:52;;;;;;;18.92;11.60;;;9.00;88.00;;;;;;5031142;28;20025;-66
2021/10/11 00:18:37;;;;;;;19.55;12.50;;;9.00;88.00;;;;;;5038278;28;20508;-67
2021/10/11 00:21:23;;;;;;;19.63;10.98;;;8.90;88.10;;;;;;5036408;28;20056;-66
2021/10/11 00:24:09;;;;;;;17.73;11.05;;;8.90;88.10;;;;;;5048896;28;20032;-67
2021/10/11 00:26:55;;;;;;;17.70;11.98;;;8.90;88.00;;;;;;5048379;28;20400;-67
2021/10/11 00:29:41;;;;;;;19.45;11.50;;;8.90;88.30;;;;;;5035795;28;20492;-67
2021/10/11 00:32:27;;;;;;;16.98;11.30;;;8.90;88.50;;;;;;5045953;28;20051;-67
2021/10/11 00:35:13;;;;;;;20.90;12.60;;;8.80;88.70;;;;;;5029370;28;20039;-67
2021/10/11 00:37:59;;;;;;;22.17;12.82;;;8.80;88.80;;;;;;5040420;28;20075;-67
2021/10/11 00:40:45;;;;;;;16.60;10.65;;;8.80;89.00;;;;;;5031428;28;20128;-67
2021/10/11 00:43:31;;;;;;;19.85;11.70;;;8.80;89.30;;;;;;5041407;28;20024;-67
2021/10/11 00:46:17;;;;;;;17.92;11.88;;;8.80;89.40;;;;;;5049477;28;20032;-67
2021/10/11 00:49:03;;;;;;;21.30;12.18;;;8.80;89.60;;;;;;5032352;28;20445;-67
2021/10/11 00:51:48;;;;;;;18.95;11.70;;;8.80;89.90;;;;;;5041941;28;20052;-67
2021/10/11 00:54:34;;;;;;;18.73;12.65;;;8.70;90.00;;;;;;5038264;28;20088;-67
2021/10/11 00:57:20;;;;;;;19.90;12.60;;;8.70;90.00;;;;;;5020583;28;20041;-67
2021/10/11 01:00:07;;;;;;;18.77;12.25;;;8.70;90.00;;;;;;5029687;28;20810;-67
2021/10/11 01:02:53;;;;;;;23.63;12.55;;;8.70;90.10;;;;;;5044624;28;20053;-67
2021/10/11 01:05:39;;;;;;;17.80;11.70;;;8.60;90.10;;;;;;5050250;28;20106;-67
2021/10/11 01:08:25;;;;;;;21.80;13.02;;;8.70;90.20;;;;;;5048866;28;20036;-67
2021/10/11 01:11:11;;;;;;;22.05;12.85;;;8.60;90.20;;;;;;5036142;28;20037;-67
2021/10/11 01:13:58;;;;;;;22.13;12.30;;;8.60;90.20;;;;;;5044635;28;20048;-67
2021/10/11 01:16:44;;;;;;;21.08;13.07;;;8.60;90.20;;;;;;5050308;28;20041;-68
2021/10/11 01:19:30;;;;;;;20.15;12.45;;;8.60;90.30;;;;;;5042581;28;20041;-67
2021/10/11 01:22:17;;;;;;;19.88;12.18;;;8.50;90.30;;;;;;5055499;28;20101;-67
2021/10/11 01:25:06;;;;;;;21.00;12.57;;;8.50;90.30;;;;;;5016615;28;20026;-67
2021/10/11 01:27:52;;;;;;;21.92;12.63;;;8.40;90.40;;;;;;5035628;28;20029;-67
2021/10/11 01:30:37;;;;;;;21.88;12.77;;;8.40;90.50;;;;;;5049132;28;20025;-66
2021/10/11 01:33:24;;;;;;;21.25;12.60;;;8.40;90.50;;;;;;5048090;28;20036;-66
2021/10/11 01:36:09;;;;;;;22.20;13.13;;;8.40;90.50;;;;;;5048434;28;20029;-67
2021/10/11 01:39:09;;;;;;;18.75;12.50;;;8.40;90.60;;;;;;5034593;28;20048;-67
2021/10/11 01:41:55;;;;;;;21.58;12.43;;;8.40;90.60;;;;;;5045415;28;20056;-66
2021/10/11 01:44:41;;;;;;;18.52;11.98;;;8.40;90.60;;;;;;5030342;28;20029;-66
2021/10/11 01:47:27;;;;;;;20.00;11.63;;;8.30;90.70;;;;;;5040170;28;20029;-66
2021/10/11 01:50:13;;;;;;;22.27;12.63;;;8.30;90.80;;;;;;5046754;28;20041;-66
2021/10/11 01:52:59;;;;;;;20.85;12.80;;;8.30;90.90;;;;;;5049319;28;20124;-66
2021/10/11 01:55:45;;;;;;;22.92;12.35;;;8.30;91.00;;;;;;5047049;28;22920;-66
2021/10/11 01:58:31;;;;;;;20.38;11.63;;;8.30;90.90;;;;;;5045326;28;20082;-66
2021/10/11 02:01:17;;;;;;;22.40;12.77;;;8.30;90.90;;;;;;5045351;28;20112;-66
2021/10/11 02:04:03;;;;;;;20.38;12.52;;;8.30;91.00;;;;;;5043755;28;20029;-66
2021/10/11 02:06:49;;;;;;;19.63;12.40;;;8.30;91.00;;;;;;5044662;28;20027;-66
2021/10/11 02:09:34;;;;;;;20.77;12.77;;;8.20;91.10;;;;;;5052461;28;20040;-66
2021/10/11 02:12:20;;;;;;;23.63;12.18;;;8.30;91.10;;;;;;5049552;28;20045;-66
2021/10/11 02:15:07;;;;;;;18.73;12.48;;;8.30;91.10;;;;;;5024923;28;20501;-66
2021/10/11 02:17:53;;;;;;;18.55;12.07;;;8.30;91.20;;;;;;5048736;28;20099;-66
2021/10/11 02:20:39;;;;;;;19.95;11.82;;;8.30;91.30;;;;;;5034160;28;20033;-66
2021/10/11 02:23:25;;;;;;;20.58;12.18;;;8.30;91.30;;;;;;5052046;28;20064;-66
2021/10/11 02:26:10;;;;;;;21.55;11.80;;;8.30;91.20;;;;;;5037877;28;20053;-66
2021/10/11 02:28:57;;;;;;;18.70;11.75;;;8.30;91.30;;;;;;5049657;28;20048;-66
2021/10/11 02:31:43;;;;;;;19.90;11.85;;;8.30;91.20;;;;;;5043150;28;20045;-67
2021/10/11 02:34:29;;;;;;;18.83;11.88;;;8.40;91.20;;;;;;5052171;28;20052;-67
2021/10/11 02:37:14;;;;;;;18.67;11.60;;;8.40;91.20;;;;;;5050785;28;20037;-66
2021/10/11 02:40:01;;;;;;;20.35;12.15;;;8.40;91.20;;;;;;5032297;28;20036;-66
2021/10/11 02:42:46;;;;;;;19.20;11.18;;;8.40;91.20;;;;;;5049200;28;20040;-66
2021/10/11 02:45:32;;;;;;;16.30;10.50;;;8.40;91.20;;;;;;5048451;28;20064;-67
2021/10/11 02:48:18;;;;;;;19.67;12.05;;;8.50;91.30;;;;;;5017416;28;20033;-66
2021/10/11 02:51:04;;;;;;;16.42;10.88;;;8.50;91.30;;;;;;5041093;28;20132;-67
2021/10/11 02:53:50;;;;;;;17.85;11.45;;;8.50;91.40;;;;;;5052402;28;20044;-67
2021/10/11 02:56:36;;;;;;;17.95;11.88;;;8.60;91.50;;;;;;5049137;28;20036;-67
2021/10/11 02:59:21;;;;;;;17.23;11.02;;;8.50;91.40;;;;;;5037181;28;20099;-67
2021/10/11 03:02:07;;;;;;;17.38;12.35;;;8.60;91.50;;;;;;5047196;28;20086;-67
2021/10/11 03:04:53;;;;;;;16.83;11.18;;;8.70;91.40;;;;;;5050359;28;20017;-67
2021/10/11 03:07:39;;;;;;;17.25;11.13;;;8.70;91.20;;;;;;5033087;28;20045;-66
2021/10/11 03:10:25;;;;;;;19.15;11.98;;;8.80;91.10;;;;;;5033948;28;20064;-67
2021/10/11 03:13:10;;;;;;;21.77;13.00;;;8.80;91.10;;;;;;5032692;28;20075;-67
2021/10/11 03:15:56;;;;;;;27.88;18.77;;;8.80;91.20;;;;;;5035370;28;20447;-67
2021/10/11 03:18:42;;;;;;;34.03;24.60;;;8.90;91.20;;;;;;5047245;28;20035;-66
2021/10/11 03:21:28;;;;;;;42.47;30.90;;;8.90;91.10;;;;;;5049398;28;20032;-67
2021/10/11 03:24:14;;;;;;;48.83;27.80;;;8.90;91.10;;;;;;5050823;28;20029;-67
2021/10/11 03:27:00;;;;;;;37.00;22.45;;;8.90;91.10;;;;;;5048605;28;20051;-66
2021/10/11 03:29:46;;;;;;;37.35;22.13;;;8.90;90.90;;;;;;5049725;28;20638;-66
2021/10/11 03:32:32;;;;;;;29.08;17.55;;;8.90;90.80;;;;;;5047794;28;20144;-67
2021/10/11 03:35:20;;;;;;;24.50;15.27;;;8.90;90.70;;;;;;5045962;28;20048;-66
2021/10/11 03:38:05;;;;;;;21.52;13.57;;;9.00;90.70;;;;;;5035100;28;20021;-68
2021/10/11 03:40:51;;;;;;;23.52;12.73;;;9.00;90.80;;;;;;5049592;28;20385;-69
2021/10/11 03:43:37;;;;;;;19.52;12.43;;;9.00;90.80;;;;;;5050161;28;20468;-68
2021/10/11 03:46:23;;;;;;;19.20;12.35;;;9.00;90.90;;;;;;5043602;28;20029;-68
2021/10/11 03:49:09;;;;;;;20.08;11.10;;;9.00;90.80;;;;;;5025022;28;20102;-68
2021/10/11 03:51:54;;;;;;;18.65;10.95;;;9.10;90.70;;;;;;5041745;28;20037;-68
2021/10/11 03:54:40;;;;;;;17.00;11.55;;;9.10;90.60;;;;;;5050215;28;20408;-68
2021/10/11 03:57:26;;;;;;;16.38;11.38;;;9.10;90.50;;;;;;5048899;28;20411;-68
2021/10/11 04:00:12;;;;;;;17.92;11.00;;;9.10;90.40;;;;;;5034613;28;20457;-68
2021/10/11 04:03:01;;;;;;;18.45;11.30;;;9.10;90.40;;;;;;5038663;28;20032;-68
2021/10/11 04:05:47;;;;;;;19.40;11.50;;;9.00;90.60;;;;;;5037631;28;20082;-68
2021/10/11 04:08:38;;;;;;;16.23;10.57;;;9.00;90.60;;;;;;5044350;28;20070;-68
2021/10/11 04:11:24;;;;;;;16.58;11.75;;;9.10;90.60;;;;;;5046899;28;20047;-68
2021/10/11 04:14:10;;;;;;;20.17;12.05;;;9.10;90.60;;;;;;5031475;28;20049;-68
2021/10/11 04:16:56;;;;;;;17.42;11.00;;;9.10;90.50;;;;;;5039270;28;20029;-67
2021/10/11 04:19:41;;;;;;;16.25;10.27;;;9.10;90.50;;;;;;5043262;28;20021;-67
2021/10/11 04:22:27;;;;;;;18.90;11.23;;;9.10;90.50;;;;;;5042967;28;20020;-67
2021/10/11 04:25:13;;;;;;;17.85;10.07;;;9.10;90.60;;;;;;5050639;28;20029;-67
2021/10/11 04:27:59;;;;;;;15.50;11.20;;;9.10;90.30;;;;;;5049293;28;20037;-67
2021/10/11 04:30:45;;;;;;;17.00;10.52;;;9.10;90.50;;;;;;5046322;28;20041;-67
2021/10/11 04:33:31;;;;;;;16.05;10.73;;;9.10;90.60;;;;;;5032883;28;20033;-67
2021/10/11 04:36:19;;;;;;;15.82;10.52;;;9.10;90.50;;;;;;5034629;28;20107;-67
2021/10/11 04:39:04;;;;;;;20.70;11.18;;;9.10;90.50;;;;;;5047881;28;20071;-67
2021/10/11 04:41:50;;;;;;;15.20;10.45;;;9.10;90.60;;;;;;5047555;28;20048;-67
2021/10/11 04:44:36;;;;;;;16.42;10.40;;;9.10;90.60;;;;;;5049253;28;20025;-72
2021/10/11 04:47:22;;;;;;;15.88;10.93;;;9.10;90.60;;;;;;5047486;28;20064;-74
2021/10/11 04:50:08;;;;;;;16.25;10.63;;;9.10;90.70;;;;;;5048209;28;20101;-73
2021/10/11 04:52:55;;;;;;;13.52;9.82;;;9.10;90.70;;;;;;5044024;28;20046;-74
2021/10/11 04:55:40;;;;;;;18.58;11.15;;;9.10;90.70;;;;;;5030633;28;20049;-74
2021/10/11 04:58:26;;;;;;;14.05;10.05;;;9.10;90.80;;;;;;5049683;28;20029;-74
2021/10/11 05:01:12;;;;;;;19.20;10.55;;;9.10;90.90;;;;;;5028404;28;20059;-75
2021/10/11 05:03:58;;;;;;;18.65;11.07;;;9.10;90.80;;;;;;5050193;28;20036;-75
2021/10/11 05:06:44;;;;;;;20.25;11.05;;;9.10;90.80;;;;;;5048143;28;20128;-75
2021/10/11 05:09:30;;;;;;;17.17;11.27;;;9.10;90.90;;;;;;5047892;28;20025;-71
2021/10/11 05:12:15;;;;;;;15.23;10.70;;;9.10;90.90;;;;;;5047893;28;20041;-74
2021/10/11 05:15:02;;;;;;;18.27;10.43;;;9.20;90.90;;;;;;5048816;28;20028;-72
2021/10/11 05:17:47;;;;;;;21.77;10.77;;;9.10;91.00;;;;;;5050142;28;20223;-74
2021/10/11 05:20:34;;;;;;;18.98;11.38;;;9.10;91.10;;;;;;5047999;28;20120;-74
2021/10/11 05:23:20;;;;;;;18.65;10.98;;;9.10;91.10;;;;;;5033393;28;20029;-78
2021/10/11 05:26:06;;;;;;;16.88;10.63;;;9.10;91.10;;;;;;5044426;28;20021;-76
2021/10/11 05:28:52;;;;;;;19.27;10.23;;;9.10;91.10;;;;;;5040864;28;20044;-78
2021/10/11 05:31:38;;;;;;;19.55;11.43;;;9.10;91.10;;;;;;5038950;28;20083;-80
2021/10/11 05:34:25;;;;;;;17.77;10.30;;;9.10;91.10;;;;;;5033895;28;20373;-75
2021/10/11 05:37:11;;;;;;;17.75;10.63;;;9.10;91.30;;;;;;5047984;28;20029;-72
2021/10/11 05:39:57;;;;;;;18.17;11.07;;;9.20;91.30;;;;;;5052492;28;20025;-72
2021/10/11 05:42:43;;;;;;;16.42;10.13;;;9.20;91.40;;;;;;5046837;28;20032;-72
2021/10/11 05:45:29;;;;;;;20.23;10.82;;;9.20;91.50;;;;;;5032971;28;20112;-73
2021/10/11 05:48:15;;;;;;;17.80;10.43;;;9.20;91.60;;;;;;5046290;28;20032;-72
2021/10/11 05:51:01;;;;;;;14.57;10.60;;;9.30;91.50;;;;;;5048098;28;20047;-72
2021/10/11 05:53:47;;;;;;;20.98;10.93;;;9.30;91.40;;;;;;5035510;28;20428;-72
2021/10/11 05:56:33;;;;;;;15.63;9.95;;;9.30;91.30;;;;;;5052755;28;20044;-73
2021/10/11 05:59:18;;;;;;;20.67;10.55;;;9.30;91.30;;;;;;5051763;28;20106;-74
2021/10/11 06:02:05;;;;;;;20.02;12.63;;;9.30;91.40;;;;;;5043451;28;20470;-72
2021/10/11 06:04:50;;;;;;;19.17;11.63;;;9.30;91.40;;;;;;5041224;28;20056;-72
2021/10/11 06:07:36;;;;;;;16.58;10.55;;;9.30;91.50;;;;;;5040740;28;20030;-72
2021/10/11 06:10:22;;;;;;;17.63;11.35;;;9.30;91.50;;;;;;5049147;28;20063;-73
2021/10/11 06:13:08;;;;;;;17.50;11.25;;;9.40;91.40;;;;;;5044421;28;20037;-73
2021/10/11 06:15:54;;;;;;;17.92;11.95;;;9.40;91.40;;;;;;5043019;28;20021;-72
2021/10/11 06:18:41;;;;;;;18.45;12.63;;;9.40;91.40;;;;;;5047913;28;20033;-73
2021/10/11 06:21:27;;;;;;;16.75;11.50;;;9.40;91.30;;;;;;5056203;28;20036;-73
2021/10/11 06:24:14;;;;;;;17.88;11.10;;;9.50;91.30;;;;;;5053660;28;20029;-73
2021/10/11 06:27:03;;;;;;;16.05;11.35;;;9.50;91.40;;;;;;5054718;28;20436;-73
2021/10/11 06:29:49;;;;;;;18.67;10.88;;;9.60;91.40;;;;;;5053988;28;20033;-72
2021/10/11 06:32:34;;;;;;;19.60;11.98;;;9.60;91.40;;;;;;5043628;28;20040;-72
2021/10/11 06:35:20;;;;;;;18.73;11.00;;;9.60;91.40;;;;;;5028612;28;20029;-72
2021/10/11 06:38:06;;;;;;;19.15;11.48;;;9.70;91.40;;;;;;5043465;28;20086;-73
2021/10/11 06:40:52;;;;;;;19.05;10.82;;;9.70;91.30;;;;;;5044056;28;20087;-72
2021/10/11 06:43:38;;;;;;;19.23;11.43;;;9.70;91.30;;;;;;5039040;28;20041;-71
2021/10/11 06:46:24;;;;;;;17.52;10.95;;;9.80;91.40;;;;;;5035369;28;20101;-67
2021/10/11 06:49:10;;;;;;;19.83;11.32;;;9.90;91.50;;;;;;5040764;28;20119;-68
2021/10/11 06:51:56;;;;;;;21.45;12.15;;;9.90;91.50;;;;;;5043831;28;20519;-67
2021/10/11 06:54:42;;;;;;;18.02;11.23;;;9.90;91.60;;;;;;5042200;28;20607;-67
2021/10/11 06:57:28;;;;;;;23.83;12.00;;;10.00;91.60;;;;;;5038662;28;20070;-66
2021/10/11 07:00:14;;;;;;;18.77;12.35;;;10.10;91.50;;;;;;5040614;28;20523;-66
2021/10/11 07:03:00;;;;;;;18.52;12.25;;;10.20;91.50;;;;;;5047097;28;20029;-67
2021/10/11 07:05:46;;;;;;;27.67;15.88;;;10.20;91.50;;;;;;5048595;28;20036;-67
2021/10/11 07:08:33;;;;;;;32.15;16.83;;;10.20;91.40;;;;;;5038931;28;20048;-68
2021/10/11 07:11:19;;;;;;;31.55;17.38;;;10.30;91.40;;;;;;5043375;28;20055;-68
2021/10/11 07:14:04;;;;;;;42.55;22.35;;;10.30;91.40;;;;;;5045350;28;20036;-68
2021/10/11 07:16:50;;;;;;;193.82;89.13;;;10.40;91.40;;;;;;5044708;28;20025;-68
2021/10/11 07:19:36;;;;;;;202.07;100.95;;;10.40;91.30;;;;;;5030910;28;20025;-68
2021/10/11 07:22:22;;;;;;;184.02;95.45;;;10.50;91.40;;;;;;5035888;28;20541;-70
2021/10/11 07:25:08;;;;;;;168.85;89.25;;;10.50;91.30;;;;;;5041677;28;20051;-70
2021/10/11 07:27:54;;;;;;;131.65;72.57;;;10.60;91.40;;;;;;5046142;28;20033;-72
2021/10/11 07:30:40;;;;;;;122.18;70.45;;;10.60;91.50;;;;;;5043962;28;20041;-71
2021/10/11 07:33:26;;;;;;;132.50;71.78;;;10.70;91.40;;;;;;5047127;28;20013;-70
2021/10/11 07:36:12;;;;;;;121.60;67.03;;;10.80;91.40;;;;;;5042693;28;20115;-71
2021/10/11 07:38:57;;;;;;;88.45;45.55;;;10.90;91.50;;;;;;5047520;28;20059;-70
2021/10/11 07:41:43;;;;;;;75.53;39.88;;;10.90;91.30;;;;;;5040861;28;20116;-70
2021/10/11 07:44:30;;;;;;;59.65;32.90;;;10.90;91.30;;;;;;5043585;28;20029;-71
2021/10/11 07:47:16;;;;;;;40.40;23.65;;;11.00;91.40;;;;;;5024041;28;20032;-70
2021/10/11 07:50:02;;;;;;;35.25;19.98;;;11.10;91.40;;;;;;5043897;28;20433;-72
2021/10/11 07:52:48;;;;;;;35.17;21.17;;;11.10;91.30;;;;;;5031894;28;20060;-73
2021/10/11 07:55:34;;;;;;;44.03;26.90;;;11.10;91.30;;;;;;5039815;28;20040;-72
2021/10/11 07:58:20;;;;;;;39.70;22.33;;;11.20;91.30;;;;;;5042821;28;20041;-71
2021/10/11 08:01:06;;;;;;;27.98;18.10;;;11.20;91.30;;;;;;5043839;28;20021;-71
2021/10/11 08:03:52;;;;;;;25.90;15.82;;;11.30;91.30;;;;;;5048867;28;20029;-71
2021/10/11 08:06:38;;;;;;;24.58;15.75;;;11.30;91.30;;;;;;5040215;28;20025;-73
2021/10/11 08:09:23;;;;;;;27.70;16.15;;;11.40;91.30;;;;;;5039413;28;20052;-73
2021/10/11 08:12:10;;;;;;;26.50;16.38;;;11.50;91.40;;;;;;5043961;28;20481;-73
2021/10/11 08:14:56;;;;;;;25.83;15.75;;;11.60;91.40;;;;;;5035269;28;20098;-73
2021/10/11 08:17:42;;;;;;;26.98;16.10;;;11.60;91.40;;;;;;5031364;28;20745;-73
2021/10/11 08:20:28;;;;;;;26.92;15.57;;;11.70;91.50;;;;;;5036713;28;20478;-73
2021/10/11 08:23:14;;;;;;;29.33;17.80;;;11.70;91.50;;;;;;5043523;28;20037;-77
2021/10/11 08:26:01;;;;;;;30.42;16.70;;;11.80;91.60;;;;;;5038920;28;20028;-77
2021/10/11 08:28:47;;;;;;;25.70;16.70;;;11.90;91.60;;;;;;5038586;28;20120;-77
2021/10/11 08:31:33;;;;;;;25.40;15.88;;;11.90;91.70;;;;;;5032554;28;20125;-77
2021/10/11 08:34:19;;;;;;;25.15;16.42;;;11.90;91.80;;;;;;5040968;28;20047;-77
2021/10/11 08:37:05;;;;;;;27.70;17.60;;;11.90;91.90;;;;;;5042233;28;20032;-77
2021/10/11 08:39:51;;;;;;;29.10;16.17;;;11.90;92.00;;;;;;5039654;28;20028;-77
2021/10/11 08:42:38;;;;;;;30.55;16.25;;;12.00;92.10;;;;;;5043101;28;20399;-77
2021/10/11 08:45:24;;;;;;;25.38;16.50;;;12.10;92.10;;;;;;5045080;28;20032;-77
2021/10/11 08:48:09;;;;;;;28.02;16.70;;;12.20;92.20;;;;;;5035400;28;20454;-78
2021/10/11 08:50:55;;;;;;;32.50;18.67;;;12.20;92.40;;;;;;5030581;28;20045;-78
2021/10/11 08:53:41;;;;;;;24.45;17.05;;;12.30;92.70;;;;;;5040445;28;20455;-76
2021/10/11 08:56:27;;;;;;;29.13;17.25;;;12.30;92.50;;;;;;5041172;28;20393;-76
2021/10/11 08:59:13;;;;;;;27.63;17.10;;;12.40;92.60;;;;;;5042531;28;20064;-77
2021/10/11 09:02:06;;;;;;;24.73;16.25;;;12.50;92.70;;;;;;5041300;28;20076;-77
2021/10/11 09:04:56;;;;;;;24.67;16.70;;;12.50;92.70;;;;;;5038432;28;20036;-78
2021/10/11 09:07:46;;;;;;;31.88;17.20;;;12.60;92.90;;;;;;5045867;28;20040;-77
2021/10/11 09:10:47;;;;;;;27.85;16.75;;;12.60;92.90;;;;;;5042984;28;20036;-77
2021/10/11 09:13:44;;;;;;;27.23;18.05;;;12.70;92.90;;;;;;5022857;28;20068;-77
2021/10/11 09:16:32;;;;;;;29.60;17.73;;;12.80;92.90;;;;;;5035121;28;20030;-77
2021/10/11 09:19:20;;;;;;;28.00;17.55;;;12.80;93.00;;;;;;5039592;28;20107;-77
2021/10/11 09:22:06;;;;;;;27.58;17.98;;;12.90;93.10;;;;;;5052691;28;20485;-78
2021/10/11 09:24:59;;;;;;;27.50;17.92;;;13.00;93.10;;;;;;5052844;28;20032;-78
2021/10/11 09:27:53;;;;;;;31.88;18.85;;;13.00;92.90;;;;;;5051538;28;20063;-77
2021/10/11 09:30:41;;;;;;;25.38;17.15;;;13.10;92.90;;;;;;5044295;28;20044;-77
2021/10/11 09:33:32;;;;;;;29.27;18.15;;;13.10;92.80;;;;;;5047498;28;20102;-78
2021/10/11 09:36:21;;;;;;;30.63;19.02;;;13.10;92.80;;;;;;5035545;28;20096;-71
2021/10/11 09:39:07;;;;;;;28.67;18.80;;;13.00;92.80;;;;;;5051129;28;20111;-73
2021/10/11 09:41:54;;;;;;;28.05;19.20;;;13.00;92.80;;;;;;5044931;28;20535;-73
2021/10/11 09:44:51;;;;;;;28.85;18.08;;;13.00;92.90;;;;;;5047439;28;20032;-73
2021/10/11 09:47:39;;;;;;;28.00;18.25;;;13.10;93.00;;;;;;5039261;28;20029;-73
2021/10/11 09:50:26;;;;;;;31.48;19.20;;;13.10;93.00;;;;;;5043906;28;20083;-73
2021/10/11 09:53:15;;;;;;;29.55;18.08;;;13.20;93.10;;;;;;5040417;28;20069;-73
2021/10/11 09:56:03;;;;;;;27.83;18.52;;;13.30;93.10;;;;;;5041797;28;20112;-74
2021/10/11 09:58:49;;;;;;;30.27;19.25;;;13.30;93.10;;;;;;5045227;28;20028;-75
2021/10/11 10:01:35;;;;;;;30.65;19.23;;;13.30;93.10;;;;;;5041906;28;20037;-75
2021/10/11 10:04:32;;;;;;;27.90;19.17;;;13.30;93.10;;;;;;5040125;28;20095;-76
2021/10/11 10:07:19;;;;;;;30.45;20.33;;;13.30;93.10;;;;;;5051101;28;20048;-73
2021/10/11 10:10:06;;;;;;;28.25;17.13;;;13.30;93.20;;;;;;5044899;28;20801;-76
2021/10/11 10:12:52;;;;;;;29.65;18.90;;;13.30;93.20;;;;;;5053271;28;20037;-74
2021/10/11 10:15:38;;;;;;;32.55;17.20;;;13.40;93.20;;;;;;5045731;28;20075;-76
2021/10/11 10:18:24;;;;;;;25.00;16.73;;;13.40;93.30;;;;;;5044552;28;20034;-75
2021/10/11 10:21:11;;;;;;;27.70;17.80;;;13.40;93.30;;;;;;5047300;28;20544;-74
2021/10/11 10:23:57;;;;;;;26.58;16.85;;;13.50;93.30;;;;;;5039329;28;20037;-74
2021/10/11 10:26:43;;;;;;;27.70;16.40;;;13.50;93.20;;;;;;5050248;28;20040;-76
2021/10/11 10:32:07;;;;;;;27.05;16.65;;;13.50;93.40;;;;;;5212748;23;20064;-75
2021/10/11 10:35:00;;;;;;;24.67;14.90;;;13.60;93.40;;;;;;4930075;29;20495;-75
2021/10/11 10:37:46;;;;;;;23.85;16.15;;;13.70;93.30;;;;;;4928817;29;20028;-76
2021/10/11 10:40:33;;;;;;;24.40;15.27;;;13.70;93.30;;;;;;4919309;29;20036;-74
2021/10/11 10:43:20;;;;;;;26.25;14.45;;;13.70;93.40;;;;;;4930803;29;20102;-75
2021/10/11 10:46:09;;;;;;;21.40;13.73;;;13.80;93.40;;;;;;4929625;29;20079;-76
2021/10/11 10:48:54;;;;;;;21.42;14.43;;;13.80;93.40;;;;;;4923179;28;20484;-75
2021/10/11 10:51:43;;;;;;;25.35;14.35;;;13.90;93.30;;;;;;4922999;29;20103;-75
2021/10/11 10:54:34;;;;;;;22.75;14.10;;;13.90;93.30;;;;;;4931828;29;20556;-75
2021/10/11 10:57:24;;;;;;;22.33;13.30;;;14.00;93.30;;;;;;4929723;29;20471;-75
2021/10/11 11:00:19;;;;;;;21.67;12.70;;;14.00;93.20;;;;;;4908994;29;20539;-76
2021/10/11 11:03:09;;;;;;;17.67;11.85;;;14.10;93.10;;;;;;4923378;29;20034;-75
2021/10/11 11:05:55;;;;;;;17.80;10.80;;;14.20;93.00;;;;;;4931474;29;20035;-75
2021/10/11 11:08:41;;;;;;;24.90;13.77;;;14.20;92.90;;;;;;4924740;29;20035;-75
2021/10/11 11:11:29;;;;;;;20.05;11.70;;;14.30;92.80;;;;;;4930776;29;20059;-76
2021/10/11 11:14:15;;;;;;;20.05;10.82;;;14.40;92.70;;;;;;4935268;29;20032;-76
2021/10/11 11:17:01;;;;;;;22.15;11.63;;;14.50;92.70;;;;;;4921346;29;20016;-76
2021/10/11 11:19:47;;;;;;;19.55;11.30;;;14.50;92.60;;;;;;4922898;29;20028;-75
2021/10/11 11:22:33;;;;;;;17.85;10.15;;;14.60;92.60;;;;;;4902723;29;20084;-75
2021/10/11 11:25:27;;;;;;;17.20;10.95;;;14.70;92.50;;;;;;4921915;29;20035;-75
2021/10/11 11:28:17;;;;;;;17.33;11.68;;;14.80;92.50;;;;;;4934073;29;20034;-75
2021/10/11 11:31:06;;;;;;;18.75;9.90;;;14.90;92.40;;;;;;4938860;29;20459;-75
2021/10/11 11:33:52;;;;;;;19.30;10.52;;;15.10;92.30;;;;;;4917021;29;20032;-75
2021/10/11 11:36:52;;;;;;;19.23;11.02;;;15.20;92.20;;;;;;4924028;29;20102;-74
2021/10/11 11:39:38;;;;;;;21.70;10.63;;;15.30;92.20;;;;;;4935086;29;20062;-74
2021/10/11 11:42:30;;;;;;;15.43;9.63;;;15.30;91.90;;;;;;4921753;29;20571;-73
2021/10/11 11:45:18;;;;;;;15.57;9.82;;;15.40;91.90;;;;;;4917175;29;20024;-74
2021/10/11 11:48:06;;;;;;;13.30;8.05;;;15.50;91.70;;;;;;4916417;29;20036;-72
2021/10/11 11:50:58;;;;;;;15.77;8.95;;;15.60;91.40;;;;;;4916582;29;20071;-73
2021/10/11 11:53:45;;;;;;;13.88;7.72;;;15.60;91.20;;;;;;4916922;29;20118;-73
2021/10/11 11:56:31;;;;;;;14.57;7.55;;;15.70;91.30;;;;;;4917550;29;20039;-73
2021/10/11 11:59:17;;;;;;;12.68;7.50;;;15.70;91.20;;;;;;4919216;29;20047;-74
2021/10/11 12:02:04;;;;;;;12.60;7.00;;;15.70;90.90;;;;;;4916323;29;20032;-74
2021/10/11 12:04:50;;;;;;;13.82;7.40;;;15.60;90.90;;;;;;4915954;29;20032;-74
2021/10/11 12:07:40;;;;;;;16.67;6.75;;;15.60;90.80;;;;;;4920260;29;20087;-74
2021/10/11 12:10:26;;;;;;;14.55;7.35;;;15.70;90.80;;;;;;4901575;29;20044;-74
2021/10/11 12:13:17;;;;;;;18.90;8.18;;;15.70;90.80;;;;;;4917673;29;20032;-73
2021/10/11 12:16:12;;;;;;;11.40;6.82;;;15.70;90.80;;;;;;4920913;29;20075;-74
2021/10/11 12:19:04;;;;;;;15.35;6.85;;;15.80;90.90;;;;;;4921024;29;20432;-71
2021/10/11 12:21:52;;;;;;;13.30;6.35;;;15.90;90.90;;;;;;4934860;29;20044;-73
2021/10/11 12:24:38;;;;;;;11.93;5.35;;;15.90;90.80;;;;;;4933292;29;20294;-72
2021/10/11 12:27:24;;;;;;;10.52;5.28;;;16.00;90.60;;;;;;4915451;29;20024;-73
2021/10/11 12:30:10;;;;;;;15.15;5.40;;;16.00;90.40;;;;;;4922589;29;20028;-74
2021/10/11 12:33:02;;;;;;;11.13;5.88;;;16.10;90.30;;;;;;4932530;29;20055;-73
2021/10/11 12:36:00;;;;;;;10.18;4.90;;;16.10;90.30;;;;;;4917571;29;20040;-72
2021/10/11 12:38:46;;;;;;;8.85;4.70;;;16.10;90.20;;;;;;4919194;29;20436;-73
2021/10/11 12:41:32;;;;;;;11.48;4.80;;;16.20;89.60;;;;;;4927138;29;20032;-72
2021/10/11 12:44:24;;;;;;;9.40;4.13;;;16.20;89.40;;;;;;4918548;29;20024;-69
2021/10/11 12:47:24;;;;;;;14.68;5.47;;;16.10;88.40;;;;;;4915588;29;20063;-71
2021/10/11 12:50:14;;;;;;;10.23;5.25;;;16.20;88.80;;;;;;4931276;29;20031;-71
2021/10/11 12:53:00;;;;;;;9.38;4.90;;;16.20;89.30;;;;;;4917905;29;20047;-71
2021/10/11 12:55:46;;;;;;;12.05;5.05;;;16.30;89.30;;;;;;4918924;29;20070;-72
2021/10/11 12:58:32;;;;;;;8.98;5.22;;;16.40;89.20;;;;;;4916735;29;20035;-72
2021/10/11 13:01:17;;;;;;;10.95;4.43;;;16.50;89.00;;;;;;4933175;29;20126;-72
2021/10/11 13:04:04;;;;;;;10.00;4.07;;;16.50;88.00;;;;;;4927100;29;20492;-71
2021/10/11 13:06:49;;;;;;;10.63;5.03;;;16.60;87.40;;;;;;4915583;29;20030;-72
2021/10/11 13:09:35;;;;;;;9.80;4.22;;;16.60;86.70;;;;;;4915394;29;20087;-72
2021/10/11 13:12:21;;;;;;;7.47;4.13;;;16.60;86.80;;;;;;4914509;29;20135;-72
2021/10/11 13:15:09;;;;;;;9.30;3.92;;;16.60;85.80;;;;;;4930279;29;20417;-72
2021/10/11 13:17:55;;;;;;;8.57;4.22;;;16.50;86.20;;;;;;4919978;29;20028;-72
2021/10/11 13:20:41;;;;;;;9.65;4.22;;;16.50;86.80;;;;;;4908961;29;20496;-72
2021/10/11 13:23:28;;;;;;;8.85;4.20;;;16.60;86.40;;;;;;4915928;29;20028;-72
2021/10/11 13:26:15;;;;;;;9.23;4.15;;;16.60;86.20;;;;;;4915914;29;20035;-72
2021/10/11 13:29:06;;;;;;;8.70;4.13;;;16.60;86.10;;;;;;4914939;29;20042;-71
2021/10/11 13:32:20;;;;;;;9.95;4.60;;;16.60;86.20;;;;;;4931422;29;20051;-72
2021/10/11 13:39:09;;;;;;;8.07;4.38;;;16.60;86.40;;;;;;4933329;29;20035;-73
2021/10/11 14:30:04;;;;;;;8.13;4.00;;;16.70;84.40;;;;;;4924077;29;20091;-72
2021/10/11 14:33:03;;;;;;;12.77;5.10;;;16.70;84.40;;;;;;4927251;29;20761;-73
2021/10/11 15:59:20;;;;;;;9.55;5.18;;;16.30;84.90;;;;;;4921015;29;20020;-73
2021/10/11 16:02:04;;;;;;;8.52;4.97;;;16.20;85.30;;;;;;4916887;29;20039;-73
2021/10/11 16:04:30;;;;;;;9.75;5.05;;;16.10;85.60;;;;;;4923839;29;20079;-71
2021/10/11 16:07:03;;;;;;;8.45;4.63;;;16.00;85.90;;;;;;4934954;29;20044;-71
2021/10/11 16:09:29;;;;;;;9.73;5.43;;;16.00;86.20;;;;;;4907847;29;20403;-72
2021/10/11 16:11:55;;;;;;;9.63;4.95;;;15.90;86.40;;;;;;4921641;29;20322;-72
2021/10/11 16:14:20;;;;;;;11.40;5.20;;;15.80;86.80;;;;;;4932472;29;20090;-73
2021/10/11 16:16:46;;;;;;;9.85;4.75;;;15.70;86.90;;;;;;4931959;29;20043;-72
2021/10/11 16:19:11;;;;;;;8.63;4.85;;;15.60;87.00;;;;;;4935252;29;20060;-72
2021/10/11 16:21:37;;;;;;;11.90;4.65;;;15.60;87.20;;;;;;4933817;29;20098;-73
2021/10/11 16:24:03;;;;;;;13.40;5.60;;;15.50;87.60;;;;;;4931827;29;20028;-73
2021/10/11 16:26:28;;;;;;;11.82;5.25;;;15.50;87.90;;;;;;4924146;29;20042;-72
2021/10/11 16:28:54;;;;;;;7.47;5.15;;;15.40;88.20;;;;;;4926935;29;20027;-72